createdAt,value
2019-01-21T00:01:31.682Z,100732.39
2019-01-21T00:03:58.465Z,100727.02
2019-01-21T00:06:25.228Z,100729.94
2019-01-21T00:08:52.049Z,100736.69
2019-01-21T00:11:18.822Z,100737.12
2019-01-21T00:13:45.609Z,100734.44
2019-01-21T00:16:12.388Z,100741.77
2019-01-21T00:18:39.157Z,100736.84
2019-01-21T00:21:05.958Z,100740.17
2019-01-21T00:23:32.744Z,100742.11
2019-01-21T00:25:59.552Z,100736.73
2019-01-21T00:28:26.316Z,100742.89
2019-01-21T00:30:53.103Z,100740.50
2019-01-21T00:33:19.945Z,100737.58
2019-01-21T00:35:46.745Z,100742.02
2019-01-21T00:38:13.532Z,100739.92
2019-01-21T00:40:40.310Z,100740.50
2019-01-21T00:43:07.085Z,100740.45
2019-01-21T00:45:33.898Z,100742.95
2019-01-21T00:48:00.661Z,100746.18
2019-01-21T00:50:27.451Z,100751.94
2019-01-21T00:52:54.212Z,100751.80
2019-01-21T00:55:21.023Z,100746.23
2019-01-21T00:57:47.810Z,100757.57
2019-01-21T01:00:18.211Z,100757.72
2019-01-21T01:02:45.027Z,100758.84
2019-01-21T01:05:11.864Z,100754.97
2019-01-21T01:07:38.988Z,100766.52
2019-01-21T01:10:06.397Z,100767.97
2019-01-21T01:12:33.174Z,100768.34
2019-01-21T01:14:59.997Z,100774.91
2019-01-21T01:17:26.827Z,100769.17
2019-01-21T01:19:53.627Z,100768.86
2019-01-21T01:22:20.396Z,100779.68
2019-01-21T01:24:47.218Z,100771.31
2019-01-21T01:27:14.028Z,100773.06
2019-01-21T01:29:40.787Z,100777.38
2019-01-21T01:32:07.602Z,100781.27
2019-01-21T01:34:34.373Z,100783.46
2019-01-21T01:37:01.178Z,100782.59
2019-01-21T01:39:28.077Z,100782.37
2019-01-21T01:41:54.896Z,100789.37
2019-01-21T01:44:21.721Z,100784.29
2019-01-21T01:46:48.504Z,100785.65
2019-01-21T01:49:15.317Z,100785.30
2019-01-21T01:51:42.102Z,100788.63
2019-01-21T01:54:08.890Z,100794.20
2019-01-21T01:56:35.705Z,100783.94
2019-01-21T01:59:02.489Z,100788.81
2019-01-21T02:01:29.293Z,100788.45
2019-01-21T02:03:56.065Z,100795.80
2019-01-21T02:06:22.890Z,100793.31
2019-01-21T02:08:49.922Z,100795.42
2019-01-21T02:11:16.780Z,100795.86
2019-01-21T02:13:43.553Z,100795.28
2019-01-21T02:16:10.382Z,100789.91
2019-01-21T02:18:37.170Z,100789.28
2019-01-21T02:21:04.365Z,100792.69
2019-01-21T02:23:35.265Z,100786.42
2019-01-21T02:26:03.521Z,100788.89
2019-01-21T02:28:44.577Z,100790.86
2019-01-21T02:31:22.962Z,100789.72
2019-01-21T02:34:04.549Z,100786.87
2019-01-21T02:36:46.317Z,100787.66
2019-01-21T02:39:27.869Z,100778.38
2019-01-21T02:42:07.486Z,100788.45
2019-01-21T02:44:47.909Z,100786.74
2019-01-21T02:47:23.143Z,100789.10
2019-01-21T02:50:01.062Z,100787.20
2019-01-21T02:52:39.244Z,100780.86
2019-01-21T02:55:34.045Z,100782.48
2019-01-21T02:58:12.893Z,100777.53
2019-01-21T03:01:11.648Z,100777.14
2019-01-21T03:03:48.332Z,100778.92
2019-01-21T03:06:43.255Z,100775.91
2019-01-21T03:09:24.049Z,100779.53
2019-01-21T03:12:19.182Z,100774.16
2019-01-21T03:14:58.398Z,100779.86
2019-01-21T03:17:45.630Z,100773.80
2019-01-21T03:20:22.959Z,100780.38
2019-01-21T03:23:02.382Z,100777.66
2019-01-21T03:25:44.646Z,100777.32
2019-01-21T03:28:37.095Z,100778.53
2019-01-21T03:31:29.285Z,100779.42
2019-01-21T03:34:17.679Z,100784.77
2019-01-21T03:37:03.235Z,100783.05
2019-01-21T03:40:06.065Z,100785.15
2019-01-21T03:42:47.094Z,100782.73
2019-01-21T03:45:26.077Z,100785.23
2019-01-21T03:48:02.985Z,100787.05
2019-01-21T03:50:59.199Z,100785.59
2019-01-21T03:54:06.869Z,100787.22
2019-01-21T03:56:40.206Z,100789.39
2019-01-21T03:59:33.533Z,100782.06
2019-01-21T04:02:20.451Z,100783.56
2019-01-21T04:04:59.302Z,100786.29
2019-01-21T04:07:38.765Z,100787.52
2019-01-21T04:10:35.958Z,100785.42
2019-01-21T04:13:19.385Z,100779.41
2019-01-21T04:16:11.113Z,100786.29
2019-01-21T04:18:59.389Z,100781.55
2019-01-21T04:21:53.634Z,100784.44
2019-01-21T04:25:02.045Z,100788.59
2019-01-21T04:27:54.763Z,100785.86
2019-01-21T04:30:31.758Z,100783.83
2019-01-21T04:33:10.228Z,100786.08
2019-01-21T04:36:18.134Z,100790.72
2019-01-21T04:38:58.765Z,100793.77
2019-01-21T04:41:42.759Z,100795.46
2019-01-21T04:44:38.822Z,100791.05
2019-01-21T04:47:22.255Z,100795.28
2019-01-21T04:50:22.672Z,100795.20
2019-01-21T04:53:09.514Z,100790.13
2019-01-21T04:56:16.530Z,100799.33
2019-01-21T04:59:07.736Z,100790.30
2019-01-21T05:01:47.225Z,100791.88
2019-01-21T05:04:28.282Z,100796.08
2019-01-21T05:07:10.209Z,100796.12
2019-01-21T05:09:54.158Z,100804.20
2019-01-21T05:12:38.900Z,100798.21
2019-01-21T05:15:19.426Z,100804.98
2019-01-21T05:18:25.408Z,100806.22
2019-01-21T05:21:18.547Z,100809.00
2019-01-21T05:24:11.190Z,100812.38
2019-01-21T05:26:49.163Z,100810.34
2019-01-21T05:29:23.971Z,100820.02
2019-01-21T05:32:18.162Z,100817.45
2019-01-21T05:35:11.179Z,100815.35
2019-01-21T05:37:48.910Z,100802.20
2019-01-21T05:40:37.685Z,100807.13
2019-01-21T05:43:32.595Z,100807.09
2019-01-21T05:46:28.720Z,100815.56
2019-01-21T05:49:17.984Z,100825.67
2019-01-21T05:52:17.224Z,100822.42
2019-01-21T05:55:02.049Z,100825.82
2019-01-21T05:57:41.075Z,100824.44
2019-01-21T06:00:17.794Z,100816.98
2019-01-21T06:02:58.306Z,100827.77
2019-01-21T06:05:41.038Z,100830.56
2019-01-21T06:08:28.425Z,100825.28
2019-01-21T06:11:04.320Z,100836.33
2019-01-21T06:13:47.125Z,100835.89
2019-01-21T06:16:39.736Z,100827.37
2019-01-21T06:19:32.637Z,100837.66
2019-01-21T06:22:25.830Z,100843.14
2019-01-21T06:25:26.004Z,100838.46
2019-01-21T06:28:07.816Z,100839.88
2019-01-21T06:30:46.217Z,100847.08
2019-01-21T06:33:45.226Z,100851.25
2019-01-21T06:36:21.541Z,100844.18
2019-01-21T06:39:15.668Z,100847.91
2019-01-21T06:42:10.869Z,100852.34
2019-01-21T06:44:52.529Z,100853.21
2019-01-21T06:47:46.037Z,100860.13
2019-01-21T06:50:22.181Z,100860.19
2019-01-21T06:53:08.461Z,100860.92
2019-01-21T06:55:48.588Z,100869.26
2019-01-21T06:58:50.576Z,100860.28
2019-01-21T07:01:45.272Z,100861.61
2019-01-21T07:04:52.840Z,100872.66
2019-01-21T07:07:51.905Z,100873.89
2019-01-21T07:10:44.644Z,100876.63
2019-01-21T07:13:25.146Z,100886.41
2019-01-21T07:16:07.232Z,100881.37
2019-01-21T07:18:54.917Z,100883.17
2019-01-21T07:21:36.444Z,100887.73
2019-01-21T07:24:31.068Z,100888.64
2019-01-21T07:27:39.885Z,100889.95
2019-01-21T07:30:20.169Z,100896.75
2019-01-21T07:33:17.829Z,100899.98
2019-01-21T07:36:19.522Z,100894.37
2019-01-21T07:38:55.145Z,100889.23
2019-01-21T07:41:43.549Z,100889.05
2019-01-21T07:44:36.058Z,100888.77
2019-01-21T07:47:29.901Z,100888.47
2019-01-21T07:50:10.658Z,100887.85
2019-01-21T07:53:24.730Z,100874.30
2019-01-21T07:56:20.589Z,100878.38
2019-01-21T07:59:15.322Z,100880.60
2019-01-21T08:01:51.065Z,100890.16
2019-01-21T08:04:44.050Z,100886.95
2019-01-21T08:07:25.134Z,100889.14
2019-01-21T08:10:27.037Z,100888.30
2019-01-21T08:13:29.149Z,100892.47
2019-01-21T08:16:33.456Z,100894.53
2019-01-21T08:19:24.057Z,100894.97
2019-01-21T08:22:10.749Z,100896.48
2019-01-21T08:24:57.919Z,100900.80
2019-01-21T08:27:51.176Z,100899.56
2019-01-21T08:30:27.201Z,100895.20
2019-01-21T08:33:23.037Z,100902.88
2019-01-21T08:36:11.167Z,100912.39
2019-01-21T08:39:08.409Z,100907.03
2019-01-21T08:41:58.941Z,100899.09
2019-01-21T08:44:50.994Z,100897.52
2019-01-21T08:47:32.829Z,100901.27
2019-01-21T08:50:11.784Z,100906.12
2019-01-21T08:53:08.526Z,100902.80
2019-01-21T08:55:48.670Z,100910.95
2019-01-21T08:58:32.937Z,100910.22
2019-01-21T09:01:25.690Z,100910.68
2019-01-21T09:04:24.808Z,100911.82
2019-01-21T09:07:06.261Z,100917.73
2019-01-21T09:09:43.865Z,100915.48
2019-01-21T09:12:20.561Z,100912.20
2019-01-21T09:14:58.213Z,100914.12
2019-01-21T09:17:41.652Z,100917.68
2019-01-21T09:20:17.473Z,100914.64
2019-01-21T09:22:53.476Z,100914.94
2019-01-21T09:25:30.821Z,100919.64
2019-01-21T09:28:11.428Z,100930.02
2019-01-21T09:31:11.028Z,100928.73
2019-01-21T09:33:48.328Z,100933.24
2019-01-21T09:36:45.580Z,100936.02
2019-01-21T09:39:29.533Z,100930.52
2019-01-21T09:42:04.924Z,100933.37
2019-01-21T09:44:42.340Z,100938.72
2019-01-21T09:47:08.340Z,100942.53
2019-01-21T09:49:34.321Z,100949.44
2019-01-21T09:52:05.146Z,100940.43
2019-01-21T09:54:31.393Z,100934.27
2019-01-21T09:56:58.196Z,100944.80
2019-01-21T09:59:24.961Z,100937.31
2019-01-21T10:01:53.868Z,100941.70
2019-01-21T10:04:25.401Z,100935.88
2019-01-21T10:07:02.796Z,100943.48
2019-01-21T10:09:41.835Z,100943.58
2019-01-21T10:12:44.064Z,100943.17
2019-01-21T10:15:16.885Z,100944.05
2019-01-21T10:18:02.017Z,100946.69
2019-01-21T10:21:00.417Z,100941.62
2019-01-21T10:23:55.121Z,100937.44
2019-01-21T10:26:42.136Z,100945.39
2019-01-21T10:29:24.772Z,100926.98
2019-01-21T10:32:20.273Z,100931.93
2019-01-21T10:35:14.573Z,100925.48
2019-01-21T10:37:58.411Z,100914.22
2019-01-21T10:40:53.845Z,100918.16
2019-01-21T10:43:40.138Z,100918.43
2019-01-21T10:46:21.397Z,100911.87
2019-01-21T10:49:00.026Z,100908.10
2019-01-21T10:51:54.153Z,100912.31
2019-01-21T10:54:34.449Z,100907.27
2019-01-21T10:57:18.384Z,100898.64
2019-01-21T11:00:17.368Z,100899.70
2019-01-21T11:03:05.033Z,100892.13
2019-01-21T11:05:42.990Z,100895.09
2019-01-21T11:08:28.718Z,100897.59
2019-01-21T11:11:06.048Z,100903.27
2019-01-21T11:14:04.426Z,100899.12
2019-01-21T11:16:48.865Z,100886.52
2019-01-21T11:19:30.874Z,100893.14
2019-01-21T11:22:06.084Z,100882.30
2019-01-21T11:24:49.065Z,100885.73
2019-01-21T11:27:41.637Z,100881.80
2019-01-21T11:30:50.338Z,100887.87
2019-01-21T11:33:49.952Z,100887.80
2019-01-21T11:36:36.476Z,100878.75
2019-01-21T11:39:38.725Z,100879.42
2019-01-21T11:42:16.970Z,100880.39
2019-01-21T11:44:59.489Z,100864.48
2019-01-21T11:47:41.089Z,100858.91
2019-01-21T11:50:34.693Z,100855.47
2019-01-21T11:53:17.113Z,100860.78
2019-01-21T11:55:53.170Z,100858.02
2019-01-21T11:58:45.581Z,100849.20
2019-01-21T12:01:28.135Z,100853.53
2019-01-21T12:04:02.901Z,100848.11
2019-01-21T12:06:36.782Z,100847.63
2019-01-21T12:09:14.117Z,100836.95
2019-01-21T12:11:46.866Z,100833.32
2019-01-21T12:14:21.814Z,100838.81
2019-01-21T12:17:04.016Z,100839.41
2019-01-21T12:19:44.809Z,100836.77
2019-01-21T12:22:41.786Z,100832.12
2019-01-21T12:25:31.833Z,100828.89
2019-01-21T12:28:20.457Z,100829.03
2019-01-21T12:31:11.373Z,100826.41
2019-01-21T12:33:50.016Z,100823.56
2019-01-21T12:36:40.325Z,100821.90
2019-01-21T12:39:18.735Z,100827.47
2019-01-21T12:41:54.976Z,100819.39
2019-01-21T12:44:51.994Z,100815.84
2019-01-21T12:47:24.882Z,100805.70
2019-01-21T12:50:03.238Z,100809.32
2019-01-21T12:52:36.825Z,100804.41
2019-01-21T12:55:14.317Z,100807.30
2019-01-21T12:58:04.798Z,100800.00
2019-01-21T13:00:46.714Z,100798.36
2019-01-21T13:03:29.514Z,100802.11
2019-01-21T13:06:11.120Z,100800.09
2019-01-21T13:09:03.959Z,100792.89
2019-01-21T13:11:59.398Z,100794.10
2019-01-21T13:14:39.662Z,100788.45
2019-01-21T13:17:23.348Z,100784.61
2019-01-21T13:20:15.400Z,100793.41
2019-01-21T13:22:51.574Z,100792.58
2019-01-21T13:25:45.990Z,100785.88
2019-01-21T13:28:42.560Z,100787.05
2019-01-21T13:31:31.376Z,100782.45
2019-01-21T13:34:21.777Z,100779.97
2019-01-21T13:37:09.065Z,100778.05
2019-01-21T13:40:06.228Z,100770.54
2019-01-21T13:43:01.256Z,100770.94
2019-01-21T13:45:44.969Z,100764.11
2019-01-21T13:48:20.696Z,100761.00
2019-01-21T13:51:24.237Z,100751.84
2019-01-21T13:54:16.065Z,100750.41
2019-01-21T13:57:01.056Z,100757.00
2019-01-21T13:59:43.233Z,100749.80
2019-01-21T14:02:23.621Z,100759.19
2019-01-21T14:05:10.287Z,100756.78
2019-01-21T14:07:53.941Z,100751.31
2019-01-21T14:10:29.459Z,100755.11
2019-01-21T14:13:11.421Z,100749.20
2019-01-21T14:15:44.317Z,100744.01
2019-01-21T14:18:32.461Z,100745.59
2019-01-21T14:21:14.212Z,100746.16
2019-01-21T14:23:52.358Z,100752.44
2019-01-21T14:26:47.821Z,100748.06
2019-01-21T14:29:24.601Z,100745.51
2019-01-21T14:32:26.265Z,100748.34
2019-01-21T14:35:23.973Z,100737.75
2019-01-21T14:38:23.605Z,100735.26
2019-01-21T14:41:02.054Z,100731.59
2019-01-21T14:43:42.004Z,100727.92
2019-01-21T14:46:19.149Z,100729.44
2019-01-21T14:49:18.926Z,100735.34
2019-01-21T14:54:49.810Z,100726.59
2019-01-21T14:57:52.454Z,100720.73
2019-01-21T15:00:30.798Z,100717.53
2019-01-21T15:03:29.818Z,100711.44
2019-01-21T15:06:12.392Z,100713.47
2019-01-21T15:09:04.540Z,100710.30
2019-01-21T15:11:57.618Z,100720.02
2019-01-21T15:14:41.743Z,100722.80
2019-01-21T15:17:26.576Z,100717.19
2019-01-21T15:20:01.399Z,100721.15
2019-01-21T15:22:56.599Z,100724.42
2019-01-21T15:25:37.908Z,100721.52
2019-01-21T15:28:21.409Z,100728.98
2019-01-21T15:31:02.721Z,100719.20
2019-01-21T15:33:56.554Z,100723.07
2019-01-21T15:36:48.291Z,100728.16
2019-01-21T15:39:40.869Z,100728.56
2019-01-21T15:42:34.361Z,100740.30
2019-01-21T15:45:17.657Z,100738.27
2019-01-21T15:47:57.212Z,100732.77
2019-01-21T15:50:48.252Z,100728.14
2019-01-21T15:53:24.692Z,100725.69
2019-01-21T15:55:57.024Z,100722.14
2019-01-21T15:59:07.996Z,100729.84
2019-01-21T16:01:45.488Z,100732.75
2019-01-21T16:04:27.333Z,100733.17
2019-01-21T16:07:05.679Z,100737.52
2019-01-21T16:10:01.157Z,100745.11
2019-01-21T16:12:40.966Z,100742.34
2019-01-21T16:15:18.456Z,100739.89
2019-01-21T16:17:59.672Z,100737.20
2019-01-21T16:20:49.825Z,100730.66
2019-01-21T16:23:41.916Z,100740.72
2019-01-21T16:26:16.063Z,100740.55
2019-01-21T16:29:12.820Z,100744.38
2019-01-21T16:31:51.013Z,100751.32
2019-01-21T16:34:37.521Z,100750.64
2019-01-21T16:37:17.056Z,100751.91
2019-01-21T16:40:12.362Z,100755.36
2019-01-21T16:42:39.216Z,100752.03
2019-01-21T16:45:06.040Z,100752.06
2019-01-21T16:47:32.864Z,100749.33
2019-01-21T16:49:59.616Z,100744.17
2019-01-21T16:52:26.467Z,100748.05
2019-01-21T16:54:53.569Z,100745.28
2019-01-21T16:57:20.352Z,100748.95
2019-01-21T16:59:47.120Z,100749.97
2019-01-21T17:02:13.860Z,100755.05
2019-01-21T17:04:40.614Z,100751.45
2019-01-21T17:07:07.356Z,100754.66
2019-01-21T17:09:34.163Z,100753.09
2019-01-21T17:12:00.893Z,100741.50
2019-01-21T17:14:27.669Z,100749.91
2019-01-21T17:16:54.425Z,100753.17
2019-01-21T17:19:21.192Z,100750.95
2019-01-21T17:21:47.965Z,100752.10
2019-01-21T17:24:14.816Z,100749.41
2019-01-21T17:26:41.796Z,100747.42
2019-01-21T17:29:08.568Z,100747.23
2019-01-21T17:31:35.468Z,100745.05
2019-01-21T17:34:02.292Z,100749.52
2019-01-21T17:36:29.112Z,100748.18
2019-01-21T17:38:55.873Z,100756.96
2019-01-21T17:41:22.611Z,100758.25
2019-01-21T17:43:49.360Z,100752.84
2019-01-21T17:46:16.113Z,100745.53
2019-01-21T17:48:42.964Z,100747.00
2019-01-21T17:51:09.743Z,100741.44
2019-01-21T17:53:36.611Z,100736.95
2019-01-21T17:56:04.039Z,100739.84
2019-01-21T17:58:30.828Z,100739.69
2019-01-21T18:00:57.649Z,100731.97
2019-01-21T18:03:24.400Z,100726.70
2019-01-21T18:05:51.382Z,100738.67
2019-01-21T18:08:18.166Z,100732.59
2019-01-21T18:10:45.500Z,100737.91
2019-01-21T18:13:11.684Z,100742.69
2019-01-21T18:15:38.449Z,100742.20
2019-01-21T18:18:05.365Z,100732.73
2019-01-21T18:20:32.163Z,100742.30
2019-01-21T18:22:58.903Z,100739.16
2019-01-21T18:25:25.662Z,100730.88
2019-01-21T18:27:52.396Z,100733.67
2019-01-21T18:30:22.364Z,100731.41
2019-01-21T18:32:49.116Z,100731.91
2019-01-21T18:35:15.884Z,100741.87
2019-01-21T18:37:42.664Z,100732.16
2019-01-21T18:40:11.916Z,100726.81
2019-01-21T18:42:38.764Z,100733.64
2019-01-21T18:45:06.024Z,100720.50
2019-01-21T18:47:32.773Z,100712.83
2019-01-21T18:49:59.644Z,100719.72
2019-01-21T18:52:26.396Z,100709.39
2019-01-21T18:54:53.135Z,100709.33
2019-01-21T18:57:19.867Z,100718.49
2019-01-21T18:59:46.632Z,100708.16
2019-01-21T19:02:13.395Z,100711.05
2019-01-21T19:04:40.148Z,100720.80
2019-01-21T19:07:06.885Z,100718.55
2019-01-21T19:09:33.668Z,100727.23
2019-01-21T19:12:00.429Z,100731.61
2019-01-21T19:14:27.181Z,100733.48
2019-01-21T19:16:53.948Z,100725.78
2019-01-21T19:19:20.718Z,100729.95
2019-01-21T19:21:53.414Z,100724.08
2019-01-21T19:24:14.195Z,100719.64
2019-01-21T19:26:41.573Z,100727.18
2019-01-21T19:29:08.314Z,100731.34
2019-01-21T19:31:36.079Z,100736.72
2019-01-21T19:34:03.088Z,100734.55
2019-01-21T19:36:29.873Z,100739.47
2019-01-21T19:38:56.604Z,100734.95
2019-01-21T19:41:23.361Z,100739.42
2019-01-21T19:43:50.088Z,100740.36
2019-01-21T19:46:16.869Z,100734.71
2019-01-21T19:48:43.600Z,100739.32
2019-01-21T19:51:10.352Z,100733.40
2019-01-21T19:53:37.102Z,100729.09
2019-01-21T19:56:03.857Z,100737.48
2019-01-21T19:58:30.585Z,100730.12
2019-01-21T20:00:57.335Z,100723.65
2019-01-21T20:03:24.148Z,100726.64
2019-01-21T20:05:50.893Z,100723.01
2019-01-21T20:08:17.620Z,100726.52
2019-01-21T20:10:44.401Z,100727.78
2019-01-21T20:13:11.132Z,100731.83
2019-01-21T20:15:38.336Z,100732.89
2019-01-21T20:18:04.664Z,100742.47
2019-01-21T20:20:35.033Z,100738.87
2019-01-21T20:23:01.763Z,100739.64
2019-01-21T20:25:28.524Z,100747.32
2019-01-21T20:27:55.260Z,100743.11
2019-01-21T20:30:22.074Z,100745.39
2019-01-21T20:32:48.813Z,100742.65
2019-01-21T20:35:15.625Z,100728.46
2019-01-21T20:37:42.378Z,100725.70
2019-01-21T20:40:12.819Z,100735.48
2019-01-21T20:42:39.588Z,100725.08
2019-01-21T20:45:06.816Z,100725.42
2019-01-21T20:47:33.604Z,100728.80
2019-01-21T20:50:00.337Z,100721.66
2019-01-21T20:52:27.097Z,100728.21
2019-01-21T20:54:53.884Z,100729.69
2019-01-21T20:57:20.588Z,100725.41
2019-01-21T20:59:47.324Z,100723.00
2019-01-21T21:02:14.081Z,100719.88
2019-01-21T21:04:40.809Z,100714.70
2019-01-21T21:07:07.576Z,100713.59
2019-01-21T21:09:34.295Z,100709.02
2019-01-21T21:12:01.053Z,100700.80
2019-01-21T21:14:27.800Z,100696.88
2019-01-21T21:16:54.557Z,100696.52
2019-01-21T21:19:21.288Z,100698.36
2019-01-21T21:21:48.061Z,100694.06
2019-01-21T21:24:14.788Z,100693.09
2019-01-21T21:26:42.201Z,100689.56
2019-01-21T21:29:08.997Z,100692.85
2019-01-21T21:31:35.781Z,100691.45
2019-01-21T21:34:02.514Z,100687.83
2019-01-21T21:36:29.272Z,100682.44
2019-01-21T21:38:56.009Z,100684.15
2019-01-21T21:41:22.752Z,100672.50
2019-01-21T21:43:49.653Z,100674.72
2019-01-21T21:46:16.416Z,100673.38
2019-01-21T21:48:43.170Z,100673.78
2019-01-21T21:51:09.920Z,100672.50
2019-01-21T21:53:36.670Z,100670.80
2019-01-21T21:56:03.420Z,100673.42
2019-01-21T21:58:30.163Z,100670.27
2019-01-21T22:00:56.922Z,100663.17
2019-01-21T22:03:23.696Z,100660.82
2019-01-21T22:05:50.536Z,100654.47
2019-01-21T22:08:17.312Z,100654.92
2019-01-21T22:10:44.040Z,100652.28
2019-01-21T22:13:10.813Z,100641.76
2019-01-21T22:15:37.580Z,100649.77
2019-01-21T22:18:04.424Z,100643.06
2019-01-21T22:20:31.166Z,100642.38
2019-01-21T22:22:57.920Z,100645.58
2019-01-21T22:25:24.672Z,100647.89
2019-01-21T22:27:51.421Z,100643.08
2019-01-21T22:30:21.292Z,100650.66
2019-01-21T22:32:48.092Z,100635.28
2019-01-21T22:35:14.853Z,100636.69
2019-01-21T22:37:41.660Z,100641.92
2019-01-21T22:40:11.020Z,100636.86
2019-01-21T22:42:37.781Z,100627.55
2019-01-21T22:45:05.017Z,100630.98
2019-01-21T22:47:31.825Z,100639.23
2019-01-21T22:49:58.605Z,100630.70
2019-01-21T22:52:25.388Z,100629.91
2019-01-21T22:54:52.134Z,100626.27
2019-01-21T22:57:18.925Z,100624.41
2019-01-21T22:59:45.699Z,100619.06
2019-01-21T23:02:12.558Z,100621.66
2019-01-21T23:04:39.327Z,100626.97
2019-01-21T23:07:06.122Z,100627.02
2019-01-21T23:09:32.997Z,100626.70
2019-01-21T23:11:59.801Z,100630.65
2019-01-21T23:14:26.557Z,100625.77
2019-01-21T23:16:53.357Z,100624.16
2019-01-21T23:19:20.128Z,100616.36
2019-01-21T23:21:46.901Z,100608.33
2019-01-21T23:24:16.466Z,100607.37
2019-01-21T23:26:40.452Z,100604.77
2019-01-21T23:29:07.246Z,100604.73
2019-01-21T23:31:34.040Z,100600.31
2019-01-21T23:34:00.806Z,100599.91
2019-01-21T23:36:27.585Z,100594.89
2019-01-21T23:38:54.344Z,100598.89
2019-01-21T23:41:21.102Z,100592.29
2019-01-21T23:43:47.872Z,100596.48
2019-01-21T23:46:14.842Z,100591.88
2019-01-21T23:48:41.635Z,100600.29
2019-01-21T23:51:08.489Z,100595.45
2019-01-21T23:53:35.268Z,100591.44
2019-01-21T23:56:02.044Z,100589.66
2019-01-21T23:58:28.808Z,100581.05
